createdAt,value
2018-07-26T00:00:20.603Z,20.36
2018-07-26T00:02:48.262Z,20.33
2018-07-26T00:05:15.932Z,20.37
2018-07-26T00:07:43.555Z,20.34
2018-07-26T00:10:11.290Z,20.31
2018-07-26T00:12:38.909Z,20.26
2018-07-26T00:15:07.126Z,20.41
2018-07-26T00:17:34.725Z,20.41
2018-07-26T00:20:02.394Z,20.43
2018-07-26T00:22:30.063Z,20.37
2018-07-26T00:24:57.760Z,20.20
2018-07-26T00:27:25.418Z,20.13
2018-07-26T00:29:53.091Z,20.05
2018-07-26T00:32:20.703Z,20.12
2018-07-26T00:34:48.362Z,19.94
2018-07-26T00:37:16.108Z,19.96
2018-07-26T00:39:43.777Z,20.00
2018-07-26T00:42:11.412Z,20.02
2018-07-26T00:44:39.321Z,20.01
2018-07-26T00:47:07.010Z,19.86
2018-07-26T00:49:34.685Z,19.83
2018-07-26T00:52:02.392Z,19.90
2018-07-26T00:54:30.069Z,19.86
2018-07-26T00:56:57.686Z,20.02
2018-07-26T00:59:25.312Z,19.82
2018-07-26T01:01:53.002Z,19.72
2018-07-26T01:04:20.655Z,19.74
2018-07-26T01:06:48.283Z,19.70
2018-07-26T01:09:15.901Z,19.62
2018-07-26T01:11:43.579Z,19.67
2018-07-26T01:14:11.239Z,19.72
2018-07-26T01:16:38.903Z,19.51
2018-07-26T01:19:06.583Z,19.66
2018-07-26T01:21:34.222Z,19.56
2018-07-26T01:24:01.926Z,19.72
2018-07-26T01:26:29.534Z,19.53
2018-07-26T01:28:57.175Z,19.43
2018-07-26T01:31:24.841Z,19.38
2018-07-26T01:33:52.710Z,19.44
2018-07-26T01:36:20.370Z,19.49
2018-07-26T01:38:48.018Z,19.46
2018-07-26T01:41:15.830Z,19.63
2018-07-26T01:43:50.167Z,19.42
2018-07-26T01:46:19.227Z,19.26
2018-07-26T01:48:46.892Z,19.18
2018-07-26T01:51:14.571Z,19.13
2018-07-26T01:53:42.915Z,19.01
2018-07-26T01:56:11.018Z,19.02
2018-07-26T01:58:38.674Z,19.00
2018-07-26T02:01:07.639Z,18.99
2018-07-26T02:03:35.558Z,18.99
2018-07-26T02:06:03.295Z,18.91
2018-07-26T02:08:31.233Z,18.91
2018-07-26T02:10:59.406Z,18.90
2018-07-26T02:13:27.143Z,18.90
2018-07-26T02:15:54.790Z,18.87
2018-07-26T02:18:22.766Z,18.88
2018-07-26T02:20:50.986Z,18.89
2018-07-26T02:23:18.694Z,18.96
2018-07-26T02:25:46.635Z,18.85
2018-07-26T02:28:14.389Z,18.82
2018-07-26T02:30:42.577Z,18.75
2018-07-26T02:33:10.172Z,18.71
2018-07-26T02:35:38.134Z,18.67
2018-07-26T02:38:06.071Z,18.67
2018-07-26T02:40:33.746Z,18.57
2018-07-26T02:43:01.407Z,18.62
2018-07-26T02:45:29.063Z,18.52
2018-07-26T02:47:56.716Z,18.63
2018-07-26T02:50:24.334Z,18.64
2018-07-26T02:52:52.012Z,18.58
2018-07-26T02:55:19.641Z,18.52
2018-07-26T02:57:47.306Z,18.53
2018-07-26T03:00:14.958Z,18.50
2018-07-26T03:02:42.595Z,18.63
2018-07-26T03:05:10.278Z,18.51
2018-07-26T03:07:38.295Z,18.46
2018-07-26T03:10:06.292Z,18.33
2018-07-26T03:12:33.928Z,18.32
2018-07-26T03:15:01.631Z,18.34
2018-07-26T03:17:29.268Z,18.59
2018-07-26T03:19:56.930Z,18.46
2018-07-26T03:22:24.561Z,18.50
2018-07-26T03:24:52.190Z,18.36
2018-07-26T03:27:19.967Z,18.22
2018-07-26T03:29:47.602Z,18.19
2018-07-26T03:32:15.242Z,18.10
2018-07-26T03:34:42.882Z,18.06
2018-07-26T03:37:10.623Z,18.03
2018-07-26T03:39:38.303Z,17.95
2018-07-26T03:42:05.978Z,17.94
2018-07-26T03:44:33.590Z,18.02
2018-07-26T03:47:01.274Z,17.95
2018-07-26T03:49:28.957Z,18.03
2018-07-26T03:51:56.669Z,17.96
2018-07-26T03:54:24.350Z,17.95
2018-07-26T03:56:52.049Z,17.98
2018-07-26T03:59:19.727Z,17.94
2018-07-26T04:01:47.374Z,18.07
2018-07-26T04:04:15.026Z,18.20
2018-07-26T04:06:42.765Z,18.37
2018-07-26T04:09:13.127Z,18.08
2018-07-26T04:11:41.833Z,18.04
2018-07-26T04:14:09.465Z,18.10
2018-07-26T04:16:37.111Z,18.01
2018-07-26T04:19:04.974Z,18.01
2018-07-26T04:21:32.598Z,18.06
2018-07-26T04:24:00.526Z,18.10
2018-07-26T04:26:29.224Z,18.31
2018-07-26T04:28:56.855Z,18.36
2018-07-26T04:31:24.598Z,18.55
2018-07-26T04:33:52.210Z,18.74
2018-07-26T04:36:19.826Z,18.79
2018-07-26T04:38:47.536Z,18.81
2018-07-26T04:41:15.252Z,18.85
2018-07-26T04:43:42.894Z,19.10
2018-07-26T04:46:10.592Z,19.24
2018-07-26T04:48:38.263Z,19.45
2018-07-26T04:51:06.314Z,19.58
2018-07-26T04:53:34.327Z,19.83
2018-07-26T04:56:01.963Z,20.04
2018-07-26T04:58:29.906Z,20.14
2018-07-26T05:00:57.588Z,20.34
2018-07-26T05:03:26.033Z,20.53
2018-07-26T05:05:53.681Z,20.56
2018-07-26T05:08:21.299Z,20.79
2018-07-26T05:10:48.902Z,20.78
2018-07-26T05:13:16.546Z,21.02
2018-07-26T05:15:44.170Z,21.13
2018-07-26T05:18:11.861Z,21.30
2018-07-26T05:20:39.536Z,21.48
2018-07-26T05:23:07.150Z,21.69
2018-07-26T05:25:34.794Z,21.77
2018-07-26T05:28:02.453Z,21.73
2018-07-26T05:30:30.088Z,21.93
2018-07-26T05:32:57.731Z,22.16
2018-07-26T05:35:25.419Z,22.33
2018-07-26T05:37:53.104Z,22.16
2018-07-26T05:40:20.742Z,22.52
2018-07-26T05:42:48.382Z,22.85
2018-07-26T05:45:16.118Z,22.78
2018-07-26T05:47:43.786Z,23.21
2018-07-26T05:50:11.460Z,23.29
2018-07-26T05:52:39.261Z,23.66
2018-07-26T05:55:07.280Z,23.90
2018-07-26T05:57:35.049Z,24.25
2018-07-26T06:00:02.862Z,24.50
2018-07-26T06:02:30.456Z,24.70
2018-07-26T06:04:58.154Z,24.68
2018-07-26T06:07:25.837Z,24.95
2018-07-26T06:09:53.465Z,25.18
2018-07-26T06:12:21.164Z,25.50
2018-07-26T06:14:48.786Z,25.57
2018-07-26T06:17:16.524Z,25.72
2018-07-26T06:19:44.168Z,26.02
2018-07-26T06:22:11.784Z,26.09
2018-07-26T06:24:39.423Z,26.37
2018-07-26T06:27:07.170Z,26.56
2018-07-26T06:29:34.846Z,26.32
2018-07-26T06:32:02.514Z,26.54
2018-07-26T06:34:30.190Z,26.89
2018-07-26T06:36:57.859Z,27.13
2018-07-26T06:39:25.573Z,27.43
2018-07-26T06:41:53.151Z,27.74
2018-07-26T06:44:20.788Z,27.81
2018-07-26T06:46:48.454Z,28.00
2018-07-26T06:49:16.099Z,28.25
2018-07-26T06:51:43.725Z,28.58
2018-07-26T06:54:11.378Z,28.99
2018-07-26T06:56:39.784Z,28.99
2018-07-26T06:59:07.533Z,28.89
2018-07-26T07:01:35.191Z,29.23
2018-07-26T07:04:02.880Z,29.45
2018-07-26T07:06:30.745Z,30.33
2018-07-26T07:08:58.414Z,30.40
2018-07-26T07:11:26.076Z,30.51
2018-07-26T07:13:53.870Z,30.82
2018-07-26T07:16:21.601Z,31.36
2018-07-26T07:18:49.246Z,31.54
2018-07-26T07:21:17.387Z,31.63
2018-07-26T07:23:45.450Z,31.89
2018-07-26T07:26:13.169Z,32.38
2018-07-26T07:28:40.861Z,32.71
2018-07-26T07:31:08.521Z,33.18
2018-07-26T07:33:36.207Z,33.23
2018-07-26T07:36:03.935Z,33.91
2018-07-26T07:38:31.602Z,33.95
2018-07-26T07:40:59.279Z,33.90
2018-07-26T07:43:26.930Z,34.02
2018-07-26T07:45:54.589Z,33.92
2018-07-26T07:48:22.263Z,34.19
2018-07-26T07:50:49.950Z,34.21
2018-07-26T07:53:17.664Z,34.45
2018-07-26T07:55:45.330Z,34.50
2018-07-26T07:58:12.958Z,34.82
2018-07-26T08:00:40.619Z,34.78
2018-07-26T08:03:08.282Z,34.73
2018-07-26T08:05:35.940Z,34.90
2018-07-26T08:08:03.612Z,35.01
2018-07-26T08:10:31.262Z,35.64
2018-07-26T08:12:58.910Z,35.64
2018-07-26T08:15:26.579Z,35.86
2018-07-26T08:17:54.277Z,36.25
2018-07-26T08:20:21.946Z,36.25
2018-07-26T08:22:49.596Z,36.23
2018-07-26T08:25:17.363Z,36.39
2018-07-26T08:27:45.023Z,36.42
2018-07-26T08:30:12.696Z,36.53
2018-07-26T08:32:40.358Z,36.66
2018-07-26T08:35:08.439Z,36.43
2018-07-26T08:37:36.066Z,36.53
2018-07-26T08:40:04.345Z,36.83
2018-07-26T08:42:32.021Z,37.40
2018-07-26T08:44:59.699Z,37.35
2018-07-26T08:47:27.379Z,37.41
2018-07-26T08:49:55.363Z,37.53
2018-07-26T08:52:23.026Z,37.70
2018-07-26T08:54:50.669Z,38.04
2018-07-26T08:57:18.314Z,38.09
2018-07-26T08:59:45.981Z,37.75
2018-07-26T09:02:13.676Z,37.48
2018-07-26T09:04:41.280Z,38.01
2018-07-26T09:07:08.987Z,37.47
2018-07-26T09:09:36.630Z,37.66
2018-07-26T09:12:04.321Z,37.97
2018-07-26T09:14:32.002Z,38.34
2018-07-26T09:16:59.689Z,38.17
2018-07-26T09:19:27.393Z,38.67
2018-07-26T09:21:55.078Z,38.92
2018-07-26T09:24:22.805Z,37.98
2018-07-26T09:26:50.452Z,38.00
2018-07-26T09:29:18.075Z,37.96
2018-07-26T09:31:45.834Z,38.49
2018-07-26T09:34:13.549Z,38.40
2018-07-26T09:36:41.258Z,38.37
2018-07-26T09:39:09.768Z,39.34
2018-07-26T09:41:37.609Z,39.16
2018-07-26T09:44:05.329Z,38.28
2018-07-26T09:46:33.118Z,38.43
2018-07-26T09:49:00.777Z,38.62
2018-07-26T09:51:28.442Z,38.76
2018-07-26T09:53:56.111Z,38.93
2018-07-26T09:56:23.767Z,38.11
2018-07-26T09:58:51.442Z,37.68
2018-07-26T10:01:24.827Z,38.27
2018-07-26T10:03:52.459Z,38.16
2018-07-26T10:06:20.147Z,38.38
2018-07-26T10:08:47.777Z,39.01
2018-07-26T10:11:15.437Z,38.09
2018-07-26T10:13:43.048Z,37.66
2018-07-26T10:16:10.752Z,37.68
2018-07-26T10:18:38.426Z,37.64
2018-07-26T10:21:06.215Z,38.06
2018-07-26T10:23:33.960Z,37.13
2018-07-26T10:26:01.728Z,37.20
2018-07-26T10:28:29.405Z,37.43
2018-07-26T10:30:57.053Z,37.95
2018-07-26T10:33:24.888Z,37.70
2018-07-26T10:35:52.666Z,37.44
2018-07-26T10:38:20.591Z,37.41
2018-07-26T10:40:48.300Z,37.37
2018-07-26T10:43:15.964Z,37.17
2018-07-26T10:45:43.602Z,36.54
2018-07-26T10:48:11.366Z,35.52
2018-07-26T10:50:39.030Z,35.99
2018-07-26T10:53:06.725Z,36.81
2018-07-26T10:55:34.453Z,35.87
2018-07-26T10:58:02.149Z,35.71
2018-07-26T11:00:30.192Z,35.93
2018-07-26T11:02:57.859Z,35.96
2018-07-26T11:05:25.506Z,34.78
2018-07-26T11:07:53.197Z,35.02
2018-07-26T11:10:20.859Z,35.40
2018-07-26T11:12:48.759Z,35.88
2018-07-26T11:15:22.469Z,35.39
2018-07-26T11:17:50.084Z,35.17
2018-07-26T11:20:18.233Z,34.19
2018-07-26T11:22:45.958Z,34.33
2018-07-26T11:25:13.694Z,33.73
2018-07-26T11:27:41.358Z,34.18
2018-07-26T11:30:09.387Z,33.55
2018-07-26T11:32:37.138Z,33.65
2018-07-26T11:35:04.942Z,33.78
2018-07-26T11:37:32.699Z,33.99
2018-07-26T11:40:00.368Z,34.20
2018-07-26T11:42:28.069Z,34.52
2018-07-26T11:44:55.766Z,34.63
2018-07-26T11:47:23.531Z,34.71
2018-07-26T11:49:51.230Z,34.00
2018-07-26T11:52:19.154Z,33.23
2018-07-26T11:54:46.814Z,33.17
2018-07-26T11:57:14.534Z,32.83
2018-07-26T11:59:42.266Z,33.02
2018-07-26T12:02:10.134Z,32.95
2018-07-26T12:04:38.539Z,32.28
2018-07-26T12:07:06.450Z,32.29
2018-07-26T12:09:34.227Z,32.08
2018-07-26T12:12:01.960Z,32.22
2018-07-26T12:14:29.651Z,32.36
2018-07-26T12:16:57.405Z,32.42
2018-07-26T12:19:25.117Z,32.35
2018-07-26T12:21:52.917Z,32.30
2018-07-26T12:24:20.656Z,32.29
2018-07-26T12:26:48.773Z,32.16
2018-07-26T12:29:17.039Z,32.24
2018-07-26T12:31:44.746Z,32.11
2018-07-26T12:34:12.441Z,31.88
2018-07-26T12:36:40.152Z,31.85
2018-07-26T12:39:08.844Z,31.91
2018-07-26T12:41:36.657Z,31.74
2018-07-26T12:44:04.421Z,31.66
2018-07-26T12:46:32.982Z,31.89
2018-07-26T12:49:01.511Z,31.90
2018-07-26T12:51:29.270Z,31.85
2018-07-26T12:53:57.379Z,31.69
2018-07-26T12:56:25.147Z,31.65
2018-07-26T12:58:52.863Z,31.54
2018-07-26T13:01:20.722Z,31.61
2018-07-26T13:03:48.522Z,31.63
2018-07-26T13:06:16.205Z,31.41
2018-07-26T13:08:43.927Z,31.39
2018-07-26T13:11:11.698Z,31.21
2018-07-26T13:13:39.399Z,31.26
2018-07-26T13:16:07.144Z,31.08
2018-07-26T13:18:34.976Z,30.73
2018-07-26T13:21:02.731Z,30.70
2018-07-26T13:23:30.433Z,30.70
2018-07-26T13:25:58.134Z,30.69
2018-07-26T13:28:25.916Z,30.83
2018-07-26T13:30:53.611Z,31.02
2018-07-26T13:33:21.386Z,30.88
2018-07-26T13:35:49.067Z,30.81
2018-07-26T13:38:16.802Z,30.91
2018-07-26T13:40:44.510Z,30.92
2018-07-26T13:43:12.229Z,30.88
2018-07-26T13:45:39.992Z,30.81
2018-07-26T13:48:07.773Z,30.90
2018-07-26T13:50:35.551Z,30.84
2018-07-26T13:53:03.432Z,30.88
2018-07-26T13:55:31.154Z,30.86
2018-07-26T13:57:59.474Z,30.88
2018-07-26T14:00:27.185Z,30.84
2018-07-26T14:02:54.867Z,30.83
2018-07-26T14:05:22.595Z,30.79
2018-07-26T14:07:50.298Z,30.79
2018-07-26T14:10:18.046Z,30.65
2018-07-26T14:12:45.735Z,30.61
2018-07-26T14:15:13.464Z,30.58
2018-07-26T14:17:41.194Z,30.49
2018-07-26T14:20:09.950Z,30.28
2018-07-26T14:22:38.086Z,30.20
2018-07-26T14:25:05.811Z,30.20
2018-07-26T14:27:33.562Z,30.41
2018-07-26T14:30:01.481Z,30.45
2018-07-26T14:32:29.165Z,30.43
2018-07-26T14:34:56.834Z,30.21
2018-07-26T14:37:24.535Z,30.11
2018-07-26T14:39:52.268Z,30.08
2018-07-26T14:42:20.098Z,30.15
2018-07-26T14:44:47.858Z,30.30
2018-07-26T14:47:15.611Z,30.41
2018-07-26T14:49:43.400Z,30.44
2018-07-26T14:52:11.158Z,30.62
2018-07-26T14:54:38.907Z,30.52
2018-07-26T14:57:06.772Z,30.44
2018-07-26T14:59:34.433Z,30.29
2018-07-26T15:02:02.200Z,30.29
2018-07-26T15:04:29.875Z,30.28
2018-07-26T15:06:57.937Z,30.15
2018-07-26T15:09:25.621Z,29.98
2018-07-26T15:11:53.363Z,30.00
2018-07-26T15:14:21.070Z,29.98
2018-07-26T15:16:48.807Z,29.94
2018-07-26T15:19:16.607Z,29.99
2018-07-26T15:21:44.374Z,29.90
2018-07-26T15:24:12.966Z,29.90
2018-07-26T15:26:40.687Z,29.83
2018-07-26T15:29:08.394Z,29.85
2018-07-26T15:31:36.121Z,29.85
2018-07-26T15:34:03.835Z,29.72
2018-07-26T15:36:31.542Z,29.83
2018-07-26T15:38:59.289Z,29.71
2018-07-26T15:41:27.067Z,29.62
2018-07-26T15:43:54.764Z,29.61
2018-07-26T15:46:22.490Z,29.51
2018-07-26T15:48:50.185Z,29.32
2018-07-26T15:51:17.935Z,29.37
2018-07-26T15:53:45.606Z,29.37
2018-07-26T15:56:13.318Z,29.46
2018-07-26T15:58:41.192Z,29.54
2018-07-26T16:01:08.904Z,29.37
2018-07-26T16:03:36.672Z,29.25
2018-07-26T16:06:04.419Z,29.28
2018-07-26T16:08:32.099Z,29.37
2018-07-26T16:10:59.847Z,29.35
2018-07-26T16:13:27.570Z,29.26
2018-07-26T16:15:55.309Z,29.17
2018-07-26T16:18:23.051Z,29.10
2018-07-26T16:20:50.810Z,29.04
2018-07-26T16:23:18.561Z,29.13
2018-07-26T16:25:46.259Z,29.19
2018-07-26T16:28:13.950Z,29.14
2018-07-26T16:30:41.658Z,29.10
2018-07-26T16:33:09.404Z,28.97
2018-07-26T16:35:37.081Z,28.92
2018-07-26T16:38:05.150Z,28.82
2018-07-26T16:40:33.728Z,28.91
2018-07-26T16:43:01.435Z,29.00
2018-07-26T16:45:29.254Z,28.91
2018-07-26T16:47:56.915Z,28.93
2018-07-26T16:50:24.625Z,28.84
2018-07-26T16:52:52.753Z,28.77
2018-07-26T16:55:20.516Z,28.74
2018-07-26T16:57:48.235Z,28.75
2018-07-26T17:00:16.269Z,28.65
2018-07-26T17:02:43.939Z,28.61
2018-07-26T17:05:11.652Z,28.55
2018-07-26T17:07:39.407Z,28.53
2018-07-26T17:10:07.983Z,28.50
2018-07-26T17:12:36.485Z,28.55
2018-07-26T17:15:04.890Z,28.45
2018-07-26T17:17:32.646Z,28.52
2018-07-26T17:20:00.402Z,28.38
2018-07-26T17:22:28.127Z,28.35
2018-07-26T17:24:55.848Z,28.41
2018-07-26T17:27:23.536Z,28.39
2018-07-26T17:29:51.270Z,28.34
2018-07-26T17:32:19.053Z,28.33
2018-07-26T17:34:46.905Z,28.24
2018-07-26T17:37:14.803Z,28.21
2018-07-26T17:39:42.466Z,28.12
2018-07-26T17:42:10.162Z,28.12
2018-07-26T17:44:37.902Z,28.06
2018-07-26T17:47:05.698Z,28.06
2018-07-26T17:49:33.433Z,28.05
2018-07-26T17:52:01.138Z,27.99
2018-07-26T17:54:28.827Z,27.97
2018-07-26T17:56:56.617Z,27.99
2018-07-26T17:59:24.367Z,27.96
2018-07-26T18:01:52.059Z,27.94
2018-07-26T18:04:19.779Z,27.97
2018-07-26T18:06:47.458Z,27.91
2018-07-26T18:09:15.468Z,27.81
2018-07-26T18:11:43.183Z,27.82
2018-07-26T18:14:10.878Z,27.71
2018-07-26T18:16:38.640Z,27.62
2018-07-26T18:19:06.380Z,27.58
2018-07-26T18:21:34.082Z,27.44
2018-07-26T18:24:01.751Z,27.44
2018-07-26T18:26:29.481Z,27.42
2018-07-26T18:28:57.318Z,27.32
2018-07-26T18:31:25.276Z,27.28
2018-07-26T18:33:53.068Z,27.22
2018-07-26T18:36:20.841Z,27.18
2018-07-26T18:38:48.562Z,27.10
2018-07-26T18:41:16.298Z,27.04
2018-07-26T18:43:44.040Z,27.11
2018-07-26T18:46:12.019Z,27.06
2018-07-26T18:48:40.374Z,26.99
2018-07-26T18:51:08.111Z,26.85
2018-07-26T18:53:35.850Z,26.96
2018-07-26T18:56:03.617Z,26.87
2018-07-26T18:58:31.305Z,26.74
2018-07-26T19:00:59.046Z,26.68
2018-07-26T19:03:26.814Z,26.54
2018-07-26T19:05:54.537Z,26.62
2018-07-26T19:08:22.289Z,26.55
2018-07-26T19:10:50.029Z,26.62
2018-07-26T19:13:17.800Z,26.34
2018-07-26T19:15:45.614Z,26.21
2018-07-26T19:18:13.345Z,26.17
2018-07-26T19:20:41.027Z,26.17
2018-07-26T19:23:08.749Z,26.08
2018-07-26T19:25:36.458Z,25.88
2018-07-26T19:28:04.204Z,25.80
2018-07-26T19:30:31.921Z,25.62
2018-07-26T19:32:59.665Z,25.69
2018-07-26T19:35:27.402Z,25.63
2018-07-26T19:37:55.194Z,25.42
2018-07-26T19:40:23.068Z,25.37
2018-07-26T19:42:50.781Z,25.38
2018-07-26T19:45:18.477Z,25.16
2018-07-26T19:47:46.177Z,24.97
2018-07-26T19:50:13.967Z,24.95
2018-07-26T19:52:41.679Z,24.81
2018-07-26T19:55:10.078Z,24.69
2018-07-26T19:57:37.790Z,24.78
2018-07-26T20:00:06.183Z,24.88
2018-07-26T20:02:34.188Z,24.78
2018-07-26T20:05:01.893Z,24.59
2018-07-26T20:07:29.606Z,24.55
2018-07-26T20:09:57.331Z,24.43
2018-07-26T20:12:25.241Z,24.31
2018-07-26T20:14:52.970Z,24.26
2018-07-26T20:17:20.663Z,24.13
2018-07-26T20:19:48.400Z,24.20
2018-07-26T20:22:17.236Z,24.15
2018-07-26T20:24:44.968Z,24.06
2018-07-26T20:27:12.678Z,24.01
2018-07-26T20:29:40.556Z,23.97
2018-07-26T20:32:08.223Z,23.90
2018-07-26T20:34:36.000Z,23.90
2018-07-26T20:37:03.750Z,23.91
2018-07-26T20:39:31.457Z,23.85
2018-07-26T20:41:59.210Z,23.74
2018-07-26T20:44:26.911Z,23.80
2018-07-26T20:46:54.682Z,23.85
2018-07-26T20:49:22.387Z,23.81
2018-07-26T20:51:50.155Z,23.78
2018-07-26T20:54:17.926Z,23.77
2018-07-26T20:56:45.622Z,23.70
2018-07-26T20:59:13.387Z,23.64
2018-07-26T21:01:41.086Z,23.62
2018-07-26T21:04:08.778Z,23.60
2018-07-26T21:06:36.456Z,23.51
2018-07-26T21:09:06.331Z,23.52
2018-07-26T21:11:34.067Z,23.61
2018-07-26T21:14:02.007Z,23.59
2018-07-26T21:16:29.707Z,23.53
2018-07-26T21:18:57.408Z,23.56
2018-07-26T21:21:25.115Z,23.51
2018-07-26T21:23:52.825Z,23.47
2018-07-26T21:26:20.494Z,23.41
2018-07-26T21:28:48.187Z,23.36
2018-07-26T21:31:15.900Z,23.32
2018-07-26T21:33:43.742Z,23.46
2018-07-26T21:36:11.410Z,23.28
2018-07-26T21:38:39.105Z,23.12
2018-07-26T21:41:06.843Z,23.16
2018-07-26T21:43:34.538Z,23.39
2018-07-26T21:46:02.222Z,23.36
2018-07-26T21:48:29.879Z,23.08
2018-07-26T21:50:57.950Z,22.94
2018-07-26T21:53:25.630Z,22.89
2018-07-26T21:55:53.347Z,22.76
2018-07-26T21:58:21.329Z,22.78
2018-07-26T22:00:54.675Z,22.65
2018-07-26T22:03:22.410Z,22.63
2018-07-26T22:05:50.157Z,22.55
2018-07-26T22:08:17.871Z,22.51
2018-07-26T22:10:45.810Z,22.45
2018-07-26T22:13:13.541Z,22.43
2018-07-26T22:15:41.241Z,22.51
2018-07-26T22:18:08.963Z,22.41
2018-07-26T22:20:36.925Z,22.58
2018-07-26T22:23:04.689Z,22.53
2018-07-26T22:25:32.390Z,22.46
2018-07-26T22:28:00.078Z,22.40
2018-07-26T22:30:27.783Z,22.48
2018-07-26T22:32:55.519Z,22.36
2018-07-26T22:35:23.202Z,22.38
2018-07-26T22:37:50.878Z,22.25
2018-07-26T22:40:18.568Z,22.18
2018-07-26T22:42:46.295Z,22.09
2018-07-26T22:45:14.003Z,21.98
2018-07-26T22:47:41.758Z,21.97
2018-07-26T22:50:09.456Z,21.72
2018-07-26T22:52:37.144Z,21.65
2018-07-26T22:55:04.866Z,21.52
2018-07-26T22:57:32.603Z,21.66
2018-07-26T23:00:00.290Z,21.59
2018-07-26T23:02:27.986Z,21.52
2018-07-26T23:04:55.711Z,21.46
2018-07-26T23:07:23.401Z,21.41
2018-07-26T23:09:51.075Z,21.26
2018-07-26T23:12:18.727Z,21.10
2018-07-26T23:14:46.447Z,20.94
2018-07-26T23:17:14.155Z,20.97
2018-07-26T23:19:41.830Z,20.94
2018-07-26T23:22:09.523Z,20.75
2018-07-26T23:24:37.166Z,20.77
2018-07-26T23:27:04.930Z,20.88
2018-07-26T23:29:32.591Z,20.80
2018-07-26T23:32:00.266Z,20.82
2018-07-26T23:34:27.941Z,20.90
2018-07-26T23:36:55.635Z,20.89
2018-07-26T23:39:23.472Z,20.86
2018-07-26T23:41:51.179Z,20.78
2018-07-26T23:44:18.882Z,20.65
2018-07-26T23:46:46.635Z,20.69
2018-07-26T23:49:14.295Z,20.65
2018-07-26T23:51:41.986Z,20.61
2018-07-26T23:54:09.698Z,20.65
2018-07-26T23:56:37.375Z,20.51
2018-07-26T23:59:05.396Z,20.58
